createdAt,value
2023-02-09T00:01:40.660Z,22.27
2023-02-09T00:04:08.027Z,22.88
2023-02-09T00:06:35.406Z,23.83
2023-02-09T00:09:05.071Z,24.65
2023-02-09T00:11:52.437Z,25.30
2023-02-09T00:14:21.907Z,22.52
2023-02-09T00:16:50.066Z,23.23
2023-02-09T00:19:17.672Z,25.48
2023-02-09T00:21:45.201Z,22.83
2023-02-09T00:24:12.903Z,22.45
2023-02-09T00:26:40.510Z,23.33
2023-02-09T00:29:08.040Z,23.05
2023-02-09T00:31:35.762Z,22.33
2023-02-09T00:34:03.710Z,22.75
2023-02-09T00:36:31.152Z,21.00
2023-02-09T00:38:58.520Z,21.65
2023-02-09T00:41:45.896Z,23.95
2023-02-09T00:44:13.300Z,24.52
2023-02-09T00:46:40.698Z,24.17
2023-02-09T00:49:10.580Z,25.40
2023-02-09T00:51:37.919Z,22.35
2023-02-09T00:54:05.279Z,24.80
2023-02-09T00:56:35.052Z,23.85
2023-02-09T00:59:02.518Z,20.40
2023-02-09T01:01:29.970Z,20.10
2023-02-09T01:03:57.435Z,22.23
2023-02-09T01:06:24.836Z,22.13
2023-02-09T01:08:52.216Z,21.75
2023-02-09T01:11:19.933Z,23.80
2023-02-09T01:13:47.851Z,21.70
2023-02-09T01:16:16.623Z,21.08
2023-02-09T01:18:44.191Z,21.17
2023-02-09T01:21:12.909Z,22.48
2023-02-09T01:23:40.250Z,23.23
2023-02-09T01:26:09.136Z,22.35
2023-02-09T01:28:37.152Z,22.38
2023-02-09T01:31:06.038Z,23.67
2023-02-09T01:33:33.600Z,22.42
2023-02-09T01:36:04.159Z,22.02
2023-02-09T01:38:31.691Z,20.25
2023-02-09T01:40:59.049Z,22.30
2023-02-09T01:43:26.412Z,22.27
2023-02-09T01:45:55.682Z,21.35
2023-02-09T01:48:26.538Z,24.17
2023-02-09T01:50:55.862Z,23.30
2023-02-09T01:53:23.300Z,24.33
2023-02-09T01:55:52.792Z,22.98
2023-02-09T01:58:21.168Z,23.52
2023-02-09T02:00:48.922Z,25.70
2023-02-09T02:03:17.987Z,26.85
2023-02-09T02:05:46.592Z,24.42
2023-02-09T02:08:18.019Z,27.08
2023-02-09T02:10:45.813Z,27.50
2023-02-09T02:13:13.477Z,25.67
2023-02-09T02:15:57.713Z,28.42
2023-02-09T02:18:45.001Z,27.20
2023-02-09T02:21:32.251Z,30.95
2023-02-09T02:24:16.316Z,30.20
2023-02-09T02:27:00.419Z,27.60
2023-02-09T02:29:47.666Z,28.85
2023-02-09T02:32:34.942Z,26.52
2023-02-09T02:35:05.885Z,29.38
2023-02-09T02:37:53.194Z,26.33
2023-02-09T02:40:40.402Z,28.73
2023-02-09T02:43:25.819Z,29.13
2023-02-09T02:45:59.531Z,28.38
2023-02-09T02:48:46.776Z,28.98
2023-02-09T02:51:17.946Z,28.60
2023-02-09T02:53:48.953Z,29.38
2023-02-09T02:56:17.378Z,29.80
2023-02-09T02:58:46.366Z,31.55
2023-02-09T03:01:15.661Z,29.23
2023-02-09T03:03:44.762Z,30.83
2023-02-09T03:06:13.032Z,33.85
2023-02-09T03:08:48.743Z,32.00
2023-02-09T03:11:17.168Z,30.20
2023-02-09T03:14:01.052Z,31.25
2023-02-09T03:16:33.669Z,30.75
2023-02-09T03:19:20.847Z,29.92
2023-02-09T03:22:08.050Z,32.03
2023-02-09T03:24:55.250Z,28.95
2023-02-09T03:27:24.399Z,27.85
2023-02-09T03:29:54.277Z,29.77
2023-02-09T03:32:22.248Z,30.48
2023-02-09T03:34:49.935Z,30.70
2023-02-09T03:37:18.424Z,30.90
2023-02-09T03:39:45.695Z,27.83
2023-02-09T03:42:13.027Z,29.60
2023-02-09T03:44:40.370Z,31.08
2023-02-09T03:47:09.149Z,31.50
2023-02-09T03:49:39.363Z,30.20
2023-02-09T03:52:07.594Z,32.75
2023-02-09T03:54:35.705Z,29.80
2023-02-09T03:57:03.058Z,29.00
2023-02-09T03:59:30.551Z,30.30
2023-02-09T04:01:58.951Z,29.77
2023-02-09T04:04:27.035Z,32.40
2023-02-09T04:06:54.885Z,30.10
2023-02-09T04:09:22.392Z,31.30
2023-02-09T04:11:49.955Z,31.23
2023-02-09T04:14:17.373Z,32.80
2023-02-09T04:16:44.716Z,31.85
2023-02-09T04:19:12.490Z,33.35
2023-02-09T04:21:40.168Z,32.63
2023-02-09T04:24:07.894Z,33.60
2023-02-09T04:26:35.250Z,30.67
2023-02-09T04:29:02.634Z,32.58
2023-02-09T04:31:30.071Z,31.98
2023-02-09T04:33:57.446Z,33.25
2023-02-09T04:36:24.780Z,32.83
2023-02-09T04:38:52.223Z,31.50
2023-02-09T04:41:19.681Z,29.98
2023-02-09T04:43:47.361Z,32.22
2023-02-09T04:46:15.392Z,31.15
2023-02-09T04:48:42.750Z,31.45
2023-02-09T04:51:10.132Z,32.67
2023-02-09T04:53:37.568Z,30.35
2023-02-09T04:56:05.156Z,31.92
2023-02-09T04:58:52.413Z,28.70
2023-02-09T05:01:21.237Z,29.27
2023-02-09T05:03:48.732Z,29.95
2023-02-09T05:06:16.097Z,26.45
2023-02-09T05:08:44.483Z,28.13
2023-02-09T05:11:12.480Z,29.00
2023-02-09T05:13:39.814Z,27.80
2023-02-09T05:16:08.077Z,29.85
2023-02-09T05:18:35.903Z,30.75
2023-02-09T05:21:03.283Z,28.40
2023-02-09T05:23:30.649Z,30.88
2023-02-09T05:25:58.036Z,27.52
2023-02-09T05:28:25.945Z,28.60
2023-02-09T05:30:54.138Z,29.65
2023-02-09T05:33:23.219Z,31.73
2023-02-09T05:35:51.513Z,28.85
2023-02-09T05:38:19.120Z,31.13
2023-02-09T05:40:47.010Z,31.73
2023-02-09T05:43:14.692Z,31.15
2023-02-09T05:45:42.091Z,29.77
2023-02-09T05:48:09.465Z,31.38
2023-02-09T05:50:36.837Z,28.88
2023-02-09T05:53:04.126Z,28.88
2023-02-09T05:55:31.444Z,28.10
2023-02-09T05:57:58.718Z,29.63
2023-02-09T06:00:27.177Z,28.48
2023-02-09T06:02:54.444Z,29.20
2023-02-09T06:05:22.126Z,28.38
2023-02-09T06:07:49.764Z,31.15
2023-02-09T06:10:17.760Z,29.30
2023-02-09T06:12:45.092Z,30.98
2023-02-09T06:15:12.704Z,32.45
2023-02-09T06:17:40.033Z,31.73
2023-02-09T06:20:07.835Z,33.33
2023-02-09T06:22:35.226Z,28.98
2023-02-09T06:25:02.570Z,31.50
2023-02-09T06:27:29.913Z,31.00
2023-02-09T06:29:57.261Z,29.17
2023-02-09T06:32:24.554Z,30.02
2023-02-09T06:34:51.911Z,30.75
2023-02-09T06:37:19.226Z,31.02
2023-02-09T06:39:46.501Z,28.73
2023-02-09T06:42:13.868Z,28.40
2023-02-09T06:44:41.190Z,27.70
2023-02-09T06:47:08.594Z,29.58
2023-02-09T06:49:35.930Z,28.00
2023-02-09T06:52:03.528Z,31.02
2023-02-09T06:54:30.902Z,29.65
2023-02-09T06:56:58.216Z,30.23
2023-02-09T06:59:25.567Z,30.17
2023-02-09T07:01:54.995Z,29.08
2023-02-09T07:04:22.690Z,27.90
2023-02-09T07:06:50.081Z,29.95
2023-02-09T07:09:17.426Z,29.63
2023-02-09T07:11:44.696Z,29.40
2023-02-09T07:14:12.030Z,27.40
2023-02-09T07:16:39.359Z,27.95
2023-02-09T07:19:06.666Z,28.10
2023-02-09T07:21:33.992Z,26.45
2023-02-09T07:24:01.295Z,27.70
2023-02-09T07:26:28.674Z,29.50
2023-02-09T07:28:55.989Z,30.35
2023-02-09T07:31:23.498Z,28.80
2023-02-09T07:33:50.895Z,27.70
2023-02-09T07:36:19.444Z,28.13
2023-02-09T07:38:46.939Z,26.95
2023-02-09T07:41:16.042Z,26.73
2023-02-09T07:43:43.426Z,23.48
2023-02-09T07:46:11.264Z,26.23
2023-02-09T07:48:38.620Z,23.52
2023-02-09T07:51:06.427Z,22.77
2023-02-09T07:53:34.180Z,23.05
2023-02-09T07:56:01.550Z,25.40
2023-02-09T07:58:28.905Z,23.05
2023-02-09T08:00:56.255Z,22.30
2023-02-09T08:03:25.124Z,22.77
2023-02-09T08:06:12.488Z,22.48
2023-02-09T08:08:39.870Z,19.67
2023-02-09T08:11:07.210Z,21.88
2023-02-09T08:13:38.022Z,20.48
2023-02-09T08:16:06.961Z,24.02
2023-02-09T08:18:37.424Z,18.42
2023-02-09T08:21:06.072Z,19.73
2023-02-09T08:23:35.061Z,22.15
2023-02-09T08:26:05.382Z,22.92
2023-02-09T08:28:43.730Z,20.77
2023-02-09T08:31:13.857Z,22.50
2023-02-09T08:33:41.406Z,22.42
2023-02-09T08:36:09.298Z,20.30
2023-02-09T08:38:36.685Z,23.00
2023-02-09T08:41:05.096Z,24.10
2023-02-09T08:43:32.516Z,21.75
2023-02-09T08:46:08.632Z,20.75
2023-02-09T08:48:37.177Z,21.65
2023-02-09T08:51:04.795Z,23.02
2023-02-09T08:53:32.520Z,21.40
2023-02-09T08:55:59.915Z,20.85
2023-02-09T08:58:27.615Z,20.38
2023-02-09T09:01:00.073Z,18.52
2023-02-09T09:03:30.102Z,21.35
2023-02-09T09:05:59.160Z,21.65
2023-02-09T09:08:26.793Z,22.70
2023-02-09T09:10:54.281Z,22.10
2023-02-09T09:13:21.670Z,22.92
2023-02-09T09:15:49.240Z,21.48
2023-02-09T09:18:17.035Z,23.00
2023-02-09T09:20:44.379Z,24.77
2023-02-09T09:23:12.063Z,23.42
2023-02-09T09:25:40.040Z,26.55
2023-02-09T09:28:07.789Z,25.23
2023-02-09T09:30:35.330Z,22.67
2023-02-09T09:33:04.601Z,23.95
2023-02-09T09:35:32.029Z,25.80
2023-02-09T09:37:59.396Z,26.08
2023-02-09T09:40:29.356Z,25.52
2023-02-09T09:42:58.292Z,24.67
2023-02-09T09:45:27.273Z,25.23
2023-02-09T09:47:56.391Z,24.77
2023-02-09T09:50:43.543Z,25.35
2023-02-09T09:53:33.158Z,22.15
2023-02-09T09:56:03.338Z,25.13
2023-02-09T09:58:31.771Z,24.80
2023-02-09T10:00:59.172Z,22.95
2023-02-09T10:03:26.923Z,24.27
2023-02-09T10:05:55.696Z,22.83
2023-02-09T10:08:32.818Z,23.73
2023-02-09T10:11:10.674Z,24.55
2023-02-09T10:13:40.337Z,23.17
2023-02-09T10:16:16.237Z,23.67
2023-02-09T10:18:44.557Z,26.08
2023-02-09T10:21:13.119Z,23.40
2023-02-09T10:23:42.288Z,22.63
2023-02-09T10:26:31.142Z,22.05
2023-02-09T10:29:01.467Z,23.92
2023-02-09T10:31:40.759Z,24.23
2023-02-09T10:34:27.990Z,23.85
2023-02-09T10:36:56.624Z,23.05
2023-02-09T10:39:26.245Z,21.58
2023-02-09T10:41:54.518Z,22.75
2023-02-09T10:44:41.687Z,25.52
2023-02-09T10:47:11.651Z,22.27
2023-02-09T10:49:40.572Z,22.10
2023-02-09T10:52:13.132Z,22.02
2023-02-09T10:54:42.580Z,23.60
2023-02-09T10:57:29.738Z,21.35
2023-02-09T10:59:58.749Z,23.77
2023-02-09T11:02:43.514Z,24.70
2023-02-09T11:05:30.756Z,25.08
2023-02-09T11:08:02.437Z,26.10
2023-02-09T11:10:31.016Z,23.05
2023-02-09T11:12:59.177Z,22.88
2023-02-09T11:15:28.444Z,23.95
2023-02-09T11:18:06.527Z,24.70
2023-02-09T11:20:36.334Z,24.40
2023-02-09T11:23:23.532Z,24.03
2023-02-09T11:26:10.689Z,24.60
2023-02-09T11:28:57.900Z,23.00
2023-02-09T11:31:46.592Z,23.50
2023-02-09T11:34:19.979Z,21.67
2023-02-09T11:37:07.229Z,24.57
2023-02-09T11:39:54.408Z,23.17
2023-02-09T11:42:45.229Z,23.57
2023-02-09T11:45:32.452Z,23.73
2023-02-09T11:48:04.889Z,25.00
2023-02-09T11:50:52.122Z,23.10
2023-02-09T11:53:39.319Z,22.10
2023-02-09T11:56:08.743Z,24.57
2023-02-09T11:58:56.122Z,24.53
2023-02-09T12:01:43.463Z,21.43
2023-02-09T12:04:30.682Z,24.60
2023-02-09T12:07:03.523Z,23.83
2023-02-09T12:09:37.048Z,22.50
2023-02-09T12:12:16.593Z,22.93
2023-02-09T12:15:03.942Z,24.27
2023-02-09T12:17:37.603Z,23.07
2023-02-09T12:20:05.277Z,22.87
2023-02-09T12:22:52.663Z,21.80
2023-02-09T12:25:21.833Z,22.47
2023-02-09T12:28:09.081Z,22.00
2023-02-09T12:30:56.368Z,21.63
2023-02-09T12:33:43.569Z,22.67
2023-02-09T12:36:30.791Z,23.10
2023-02-09T12:39:23.845Z,24.77
2023-02-09T12:42:11.257Z,24.33
2023-02-09T12:44:39.326Z,23.42
2023-02-09T12:47:26.580Z,24.27
2023-02-09T12:50:02.800Z,24.70
2023-02-09T12:52:30.131Z,22.38
2023-02-09T12:54:57.587Z,23.30
2023-02-09T12:57:46.672Z,25.25
2023-02-09T13:00:34.619Z,23.40
2023-02-09T13:03:08.055Z,25.23
2023-02-09T13:05:38.933Z,23.73
2023-02-09T13:08:26.229Z,23.65
2023-02-09T13:11:13.387Z,24.50
2023-02-09T13:14:03.099Z,25.05
2023-02-09T13:16:50.335Z,25.23
2023-02-09T13:19:24.709Z,24.48
2023-02-09T13:22:11.944Z,22.05
2023-02-09T13:24:44.998Z,25.08
2023-02-09T13:27:20.790Z,22.05
2023-02-09T13:29:56.647Z,21.77
2023-02-09T13:32:43.863Z,23.02
2023-02-09T13:35:31.036Z,20.98
2023-02-09T13:37:59.555Z,20.52
2023-02-09T13:40:28.514Z,21.35
2023-02-09T13:43:15.749Z,23.40
2023-02-09T13:45:51.661Z,24.42
2023-02-09T13:48:36.233Z,26.25
2023-02-09T13:51:05.093Z,24.80
2023-02-09T13:53:32.580Z,24.95
2023-02-09T13:56:01.307Z,25.73
2023-02-09T13:58:30.287Z,24.27
2023-02-09T14:01:03.748Z,24.15
2023-02-09T14:03:33.072Z,22.58
2023-02-09T14:06:20.502Z,25.20
2023-02-09T14:08:49.033Z,23.05
2023-02-09T14:11:42.368Z,22.05
2023-02-09T14:14:49.971Z,25.55
2023-02-09T14:17:26.342Z,24.15
2023-02-09T14:19:54.866Z,23.83
2023-02-09T14:22:38.975Z,20.42
2023-02-09T14:25:18.721Z,22.65
2023-02-09T14:27:47.783Z,21.05
2023-02-09T14:30:17.825Z,20.73
2023-02-09T14:32:48.295Z,25.00
2023-02-09T14:35:33.606Z,25.63
2023-02-09T14:38:02.520Z,25.67
2023-02-09T14:40:49.782Z,25.13
2023-02-09T14:43:27.487Z,25.70
2023-02-09T14:46:02.210Z,24.58
2023-02-09T14:48:31.254Z,25.42
2023-02-09T14:50:59.944Z,23.98
2023-02-09T14:53:29.061Z,23.55
2023-02-09T14:55:56.953Z,25.58
2023-02-09T14:58:25.805Z,24.63
2023-02-09T15:00:53.942Z,26.02
2023-02-09T15:03:21.403Z,25.55
2023-02-09T15:05:49.757Z,24.70
2023-02-09T15:08:20.019Z,24.42
2023-02-09T15:10:50.155Z,25.10
2023-02-09T15:13:17.600Z,24.98
2023-02-09T15:15:46.517Z,24.95
2023-02-09T15:18:18.919Z,25.95
2023-02-09T15:20:46.684Z,27.02
2023-02-09T15:23:14.104Z,25.70
2023-02-09T15:25:43.789Z,26.25
2023-02-09T15:28:16.899Z,25.70
2023-02-09T15:30:44.465Z,24.15
2023-02-09T15:33:13.205Z,25.55
2023-02-09T15:35:41.453Z,26.55
2023-02-09T15:38:11.110Z,25.52
2023-02-09T15:41:03.089Z,26.30
2023-02-09T15:43:50.500Z,22.98
2023-02-09T15:46:38.018Z,24.65
2023-02-09T15:49:07.354Z,25.98
2023-02-09T15:51:36.694Z,25.70
2023-02-09T15:54:06.344Z,24.60
2023-02-09T15:56:34.303Z,25.17
2023-02-09T15:59:03.856Z,25.90
2023-02-09T16:01:34.034Z,25.10
2023-02-09T16:04:13.096Z,23.88
2023-02-09T16:06:41.247Z,22.63
2023-02-09T16:09:11.414Z,24.13
2023-02-09T16:11:40.739Z,25.00
2023-02-09T16:14:15.201Z,21.67
2023-02-09T16:16:44.221Z,23.75
2023-02-09T16:19:11.707Z,22.05
2023-02-09T16:21:39.618Z,22.63
2023-02-09T16:24:07.289Z,22.95
2023-02-09T16:26:34.903Z,22.63
2023-02-09T16:29:02.329Z,21.95
2023-02-09T16:31:30.409Z,24.73
2023-02-09T16:33:57.971Z,25.00
2023-02-09T16:36:27.238Z,23.35
2023-02-09T16:38:54.607Z,23.58
2023-02-09T16:41:43.259Z,23.25
2023-02-09T16:44:16.693Z,20.50
2023-02-09T16:46:44.665Z,21.48
2023-02-09T16:49:20.522Z,24.45
2023-02-09T16:51:47.864Z,22.48
2023-02-09T16:54:15.407Z,21.83
2023-02-09T16:56:53.642Z,26.00
2023-02-09T16:59:21.288Z,23.17
2023-02-09T17:01:49.161Z,20.88
2023-02-09T17:04:16.609Z,19.88
2023-02-09T17:06:45.112Z,20.13
2023-02-09T17:09:15.889Z,19.95
2023-02-09T17:11:46.084Z,21.63
2023-02-09T17:14:13.472Z,19.92
2023-02-09T17:16:44.677Z,20.48
2023-02-09T17:19:15.374Z,22.08
2023-02-09T17:21:43.242Z,21.75
2023-02-09T17:24:13.670Z,20.45
2023-02-09T17:26:41.145Z,19.33
2023-02-09T17:29:09.029Z,22.35
2023-02-09T17:31:52.036Z,21.35
2023-02-09T17:34:22.128Z,22.60
2023-02-09T17:36:49.530Z,20.10
2023-02-09T17:39:19.182Z,22.52
2023-02-09T17:41:48.602Z,20.60
2023-02-09T17:44:31.911Z,19.15
2023-02-09T17:47:03.502Z,19.45
2023-02-09T17:49:30.979Z,18.67
2023-02-09T17:51:58.342Z,19.80
2023-02-09T17:54:25.766Z,18.80
2023-02-09T17:56:53.151Z,18.20
2023-02-09T17:59:21.370Z,20.98
2023-02-09T18:01:50.620Z,19.60
2023-02-09T18:04:20.310Z,20.25
2023-02-09T18:06:47.778Z,17.58
2023-02-09T18:09:22.361Z,19.38
2023-02-09T18:12:09.641Z,20.20
2023-02-09T18:14:37.002Z,18.35
2023-02-09T18:17:04.456Z,18.65
2023-02-09T18:19:33.092Z,19.33
2023-02-09T18:22:01.310Z,23.42
2023-02-09T18:24:30.334Z,17.58
2023-02-09T18:26:57.697Z,23.17
2023-02-09T18:29:29.442Z,22.10
2023-02-09T18:31:57.760Z,22.80
2023-02-09T18:34:25.326Z,19.67
2023-02-09T18:36:52.708Z,19.00
2023-02-09T18:39:20.142Z,19.23
2023-02-09T18:41:54.073Z,18.85
2023-02-09T18:44:24.563Z,17.95
2023-02-09T18:46:52.060Z,16.63
2023-02-09T18:49:19.466Z,16.23
2023-02-09T18:51:47.041Z,17.02
2023-02-09T18:54:14.435Z,15.27
2023-02-09T18:56:42.092Z,16.95
2023-02-09T18:59:09.403Z,18.13
2023-02-09T19:01:36.977Z,15.70
2023-02-09T19:04:04.451Z,16.30
2023-02-09T19:06:33.463Z,15.30
2023-02-09T19:09:00.933Z,15.05
2023-02-09T19:11:28.324Z,16.10
2023-02-09T19:14:15.540Z,14.70
2023-02-09T19:16:42.942Z,14.55
2023-02-09T19:19:12.442Z,13.15
2023-02-09T19:21:39.873Z,14.18
2023-02-09T19:24:07.411Z,13.18
2023-02-09T19:26:34.914Z,13.52
2023-02-09T19:29:02.296Z,13.75
2023-02-09T19:31:29.792Z,12.85
2023-02-09T19:33:57.826Z,13.65
2023-02-09T19:36:27.984Z,13.05
2023-02-09T19:38:56.190Z,14.35
2023-02-09T19:41:25.498Z,13.95
2023-02-09T19:43:55.442Z,12.55
2023-02-09T19:46:22.918Z,12.55
2023-02-09T19:48:50.304Z,13.05
2023-02-09T19:51:17.847Z,13.88
2023-02-09T19:53:45.303Z,12.80
2023-02-09T19:56:15.894Z,11.98
2023-02-09T19:58:43.892Z,11.02
2023-02-09T20:01:11.753Z,12.57
2023-02-09T20:03:39.370Z,12.73
2023-02-09T20:06:09.071Z,12.15
2023-02-09T20:08:38.231Z,12.48
2023-02-09T20:11:07.193Z,27.05
2023-02-09T20:13:34.732Z,11.30
2023-02-09T20:16:02.368Z,32.33
2023-02-09T20:18:29.714Z,19.00
2023-02-09T20:20:58.405Z,21.02
2023-02-09T20:23:25.822Z,12.40
2023-02-09T20:25:53.231Z,13.18
2023-02-09T20:28:21.329Z,11.85
2023-02-09T20:30:49.136Z,13.25
2023-02-09T20:33:16.912Z,10.75
2023-02-09T20:35:45.864Z,11.55
2023-02-09T20:38:14.382Z,11.50
2023-02-09T20:40:42.986Z,9.60
2023-02-09T20:43:31.347Z,11.23
2023-02-09T20:46:18.767Z,10.50
2023-02-09T20:48:46.173Z,11.65
2023-02-09T20:51:16.049Z,10.93
2023-02-09T20:53:43.442Z,11.18
2023-02-09T20:56:10.861Z,11.88
2023-02-09T20:58:38.262Z,10.55
2023-02-09T21:01:06.500Z,11.80
2023-02-09T21:03:33.965Z,11.18
2023-02-09T21:06:01.359Z,10.98
2023-02-09T21:08:28.883Z,13.20
2023-02-09T21:10:57.029Z,10.52
2023-02-09T21:13:24.496Z,11.88
2023-02-09T21:15:52.123Z,10.90
2023-02-09T21:18:21.474Z,12.52
2023-02-09T21:20:49.702Z,11.73
2023-02-09T21:23:17.297Z,11.00
2023-02-09T21:25:44.851Z,11.10
2023-02-09T21:28:13.077Z,8.93
2023-02-09T21:30:42.879Z,11.38
2023-02-09T21:33:10.534Z,11.10
2023-02-09T21:35:41.675Z,9.57
2023-02-09T21:38:09.098Z,9.73
2023-02-09T21:40:36.510Z,10.55
2023-02-09T21:43:03.909Z,10.63
2023-02-09T21:45:31.398Z,11.25
2023-02-09T21:47:59.879Z,9.70
2023-02-09T21:50:27.381Z,11.07
2023-02-09T21:52:54.828Z,11.25
2023-02-09T21:55:24.717Z,9.95
2023-02-09T21:57:52.145Z,12.10
2023-02-09T22:00:19.592Z,12.70
2023-02-09T22:02:47.092Z,12.00
2023-02-09T22:05:14.457Z,10.55
2023-02-09T22:07:41.883Z,10.95
2023-02-09T22:10:09.281Z,10.23
2023-02-09T22:12:38.656Z,11.40
2023-02-09T22:15:06.414Z,12.70
2023-02-09T22:17:33.873Z,11.63
2023-02-09T22:20:01.356Z,11.88
2023-02-09T22:22:28.749Z,11.00
2023-02-09T22:24:59.003Z,12.55
2023-02-09T22:27:26.702Z,9.82
2023-02-09T22:29:54.089Z,10.95
2023-02-09T22:32:21.476Z,11.90
2023-02-09T22:34:48.838Z,12.88
2023-02-09T22:37:16.243Z,10.82
2023-02-09T22:39:45.073Z,12.95
2023-02-09T22:42:12.458Z,10.90
2023-02-09T22:44:39.799Z,12.13
2023-02-09T22:47:07.180Z,10.68
2023-02-09T22:49:34.592Z,11.93
2023-02-09T22:52:01.943Z,10.82
2023-02-09T22:54:29.344Z,12.80
2023-02-09T22:56:56.732Z,13.45
2023-02-09T22:59:24.168Z,13.10
2023-02-09T23:01:51.519Z,12.50
2023-02-09T23:04:18.945Z,12.18
2023-02-09T23:06:46.383Z,11.38
2023-02-09T23:09:14.072Z,9.27
2023-02-09T23:11:41.505Z,11.65
2023-02-09T23:14:10.662Z,11.60
2023-02-09T23:16:39.514Z,11.27
2023-02-09T23:19:07.700Z,13.27
2023-02-09T23:21:36.466Z,14.40
2023-02-09T23:24:04.396Z,13.55
2023-02-09T23:26:32.009Z,12.63
2023-02-09T23:29:00.791Z,14.90
2023-02-09T23:31:28.731Z,12.60
2023-02-09T23:33:56.247Z,11.95
2023-02-09T23:36:24.718Z,12.63
2023-02-09T23:38:56.158Z,12.70
2023-02-09T23:41:23.753Z,13.38
2023-02-09T23:43:51.544Z,13.65
2023-02-09T23:46:20.277Z,14.07
2023-02-09T23:48:48.021Z,12.50
2023-02-09T23:51:18.411Z,14.25
2023-02-09T23:53:46.401Z,14.73
2023-02-09T23:56:14.350Z,13.43
2023-02-09T23:58:43.033Z,14.27
